createdAt,value
2019-02-04T00:01:14.906Z,-1.50
2019-02-04T00:03:51.102Z,-1.40
2019-02-04T00:06:25.996Z,-1.10
2019-02-04T00:08:58.285Z,-1.10
2019-02-04T00:11:30.542Z,-1.10
2019-02-04T00:14:04.156Z,-1.10
2019-02-04T00:16:41.037Z,-1.10
2019-02-04T00:19:12.784Z,-1.20
2019-02-04T00:21:45.298Z,-1.30
2019-02-04T00:24:17.446Z,-1.40
2019-02-04T00:26:52.931Z,-1.30
2019-02-04T00:29:28.185Z,-1.10
2019-02-04T00:32:00.654Z,-0.90
2019-02-04T00:34:34.148Z,-0.70
2019-02-04T00:37:06.802Z,-0.70
2019-02-04T00:39:39.121Z,-0.50
2019-02-04T00:42:11.138Z,-0.40
2019-02-04T00:44:44.014Z,-0.30
2019-02-04T00:47:16.503Z,-0.30
2019-02-04T00:49:49.012Z,-0.20
2019-02-04T00:52:21.527Z,-0.20
2019-02-04T00:54:54.425Z,-0.20
2019-02-04T00:57:26.731Z,-0.20
2019-02-04T00:59:58.796Z,-0.20
2019-02-04T01:02:30.812Z,-0.30
2019-02-04T01:05:02.980Z,-0.40
2019-02-04T01:07:35.725Z,-0.50
2019-02-04T01:10:08.875Z,-0.70
2019-02-04T01:12:41.274Z,-0.80
2019-02-04T01:15:13.371Z,-0.90
2019-02-04T01:17:45.765Z,-1.00
2019-02-04T01:20:26.873Z,-1.00
2019-02-04T01:22:59.644Z,-0.90
2019-02-04T01:25:33.438Z,-0.70
2019-02-04T01:28:06.905Z,-0.70
2019-02-04T01:30:41.334Z,-0.60
2019-02-04T01:33:15.075Z,-0.60
2019-02-04T01:35:48.547Z,-0.50
2019-02-04T01:38:22.313Z,-0.60
2019-02-04T01:40:55.693Z,-0.70
2019-02-04T01:43:28.484Z,-0.70
2019-02-04T01:46:02.963Z,-0.80
2019-02-04T01:48:36.389Z,-1.00
2019-02-04T01:51:09.920Z,-1.10
2019-02-04T01:53:43.010Z,-1.00
2019-02-04T01:56:16.140Z,-1.00
2019-02-04T01:58:49.321Z,-1.00
2019-02-04T02:01:22.250Z,-1.00
2019-02-04T02:03:56.641Z,-1.10
2019-02-04T02:06:30.747Z,-1.10
2019-02-04T02:09:05.715Z,-1.10
2019-02-04T02:11:40.766Z,-1.10
2019-02-04T02:14:14.217Z,-1.10
2019-02-04T02:16:48.409Z,-1.10
2019-02-04T02:19:22.082Z,-1.30
2019-02-04T02:21:55.099Z,-1.30
2019-02-04T02:24:28.463Z,-1.40
2019-02-04T02:27:02.355Z,-1.50
2019-02-04T02:29:37.880Z,-1.60
2019-02-04T02:32:10.780Z,-1.70
2019-02-04T02:34:44.564Z,-1.70
2019-02-04T02:37:18.547Z,-1.70
2019-02-04T02:39:51.362Z,-1.70
2019-02-04T02:42:24.688Z,-1.80
2019-02-04T02:44:58.205Z,-1.70
2019-02-04T02:47:38.460Z,-1.70
2019-02-04T02:50:07.340Z,-1.70
2019-02-04T02:52:40.659Z,-1.70
2019-02-04T02:55:15.363Z,-1.70
2019-02-04T02:57:48.525Z,-1.70
2019-02-04T03:00:26.383Z,-1.70
2019-02-04T03:02:59.194Z,-1.60
2019-02-04T03:05:33.146Z,-1.60
2019-02-04T03:08:06.912Z,-1.60
2019-02-04T03:10:41.067Z,-1.70
2019-02-04T03:13:15.302Z,-1.70
2019-02-04T03:15:48.449Z,-1.70
2019-02-04T03:18:21.535Z,-1.60
2019-02-04T03:20:56.039Z,-1.60
2019-02-04T03:23:29.983Z,-1.60
2019-02-04T03:26:03.870Z,-1.70
2019-02-04T03:28:37.160Z,-1.70
2019-02-04T03:31:10.760Z,-1.80
2019-02-04T03:33:43.437Z,-1.80
2019-02-04T03:36:16.696Z,-1.90
2019-02-04T03:38:50.510Z,-2.00
2019-02-04T03:41:23.292Z,-2.00
2019-02-04T03:43:57.279Z,-2.00
2019-02-04T03:46:30.415Z,-2.00
2019-02-04T03:49:04.242Z,-2.10
2019-02-04T03:51:37.809Z,-2.10
2019-02-04T03:54:11.801Z,-2.10
2019-02-04T03:56:45.212Z,-2.20
2019-02-04T03:59:19.707Z,-2.20
2019-02-04T04:01:53.331Z,-2.30
2019-02-04T04:04:26.602Z,-2.20
2019-02-04T04:06:59.812Z,-2.10
2019-02-04T04:09:33.565Z,-2.10
2019-02-04T04:12:06.991Z,-2.10
2019-02-04T04:14:40.293Z,-2.00
2019-02-04T04:17:14.028Z,-1.90
2019-02-04T04:19:48.098Z,-1.80
2019-02-04T04:22:21.884Z,-1.70
2019-02-04T04:24:54.739Z,-1.60
2019-02-04T04:27:28.432Z,-1.60
2019-02-04T04:30:04.066Z,-1.50
2019-02-04T04:32:37.229Z,-1.40
2019-02-04T04:35:11.085Z,-1.60
2019-02-04T04:37:45.041Z,-1.50
2019-02-04T04:40:18.974Z,-1.50
2019-02-04T04:42:52.520Z,-1.40
2019-02-04T04:45:26.925Z,-1.50
2019-02-04T04:47:58.870Z,-1.40
2019-02-04T04:50:30.848Z,-1.40
2019-02-04T04:53:03.362Z,-1.30
2019-02-04T04:55:35.614Z,-1.30
2019-02-04T04:58:08.187Z,-1.20
2019-02-04T05:00:42.832Z,-1.20
2019-02-04T05:03:15.616Z,-1.10
2019-02-04T05:05:50.101Z,-1.00
2019-02-04T05:08:22.535Z,-1.00
2019-02-04T05:10:54.753Z,-1.00
2019-02-04T05:13:27.579Z,-0.90
2019-02-04T05:15:59.977Z,-0.90
2019-02-04T05:18:38.076Z,-0.90
2019-02-04T05:21:05.948Z,-0.90
2019-02-04T05:23:38.272Z,-0.90
2019-02-04T05:26:10.827Z,-1.00
2019-02-04T05:28:43.370Z,-1.00
2019-02-04T05:31:15.214Z,-0.90
2019-02-04T05:33:47.609Z,-0.90
2019-02-04T05:36:19.813Z,-0.90
2019-02-04T05:38:52.037Z,-0.80
2019-02-04T05:41:24.799Z,-0.80
2019-02-04T05:43:57.566Z,-0.80
2019-02-04T05:46:29.682Z,-0.80
2019-02-04T05:49:03.664Z,-0.80
2019-02-04T05:51:35.337Z,-0.80
2019-02-04T05:54:07.265Z,-0.80
2019-02-04T05:56:39.700Z,-0.70
2019-02-04T05:59:13.808Z,-0.70
2019-02-04T06:01:46.636Z,-0.70
2019-02-04T06:04:20.509Z,-0.60
2019-02-04T06:06:57.226Z,-0.60
2019-02-04T06:09:30.264Z,-0.60
2019-02-04T06:12:03.075Z,-0.60
2019-02-04T06:14:37.979Z,-0.60
2019-02-04T06:17:14.262Z,-0.60
2019-02-04T06:19:47.298Z,-0.60
2019-02-04T06:22:21.352Z,-0.60
2019-02-04T06:25:00.434Z,-0.60
2019-02-04T06:27:33.625Z,-0.60
2019-02-04T06:30:09.185Z,-0.60
2019-02-04T06:32:42.605Z,-0.70
2019-02-04T06:35:16.824Z,-0.70
2019-02-04T06:37:51.033Z,-0.70
2019-02-04T06:40:23.008Z,-0.70
2019-02-04T06:42:54.622Z,-0.70
2019-02-04T06:45:25.606Z,-0.70
2019-02-04T06:47:56.844Z,-0.70
2019-02-04T06:50:28.356Z,-0.70
2019-02-04T06:52:59.820Z,-0.70
2019-02-04T06:55:33.045Z,-0.70
2019-02-04T06:58:04.791Z,-0.70
2019-02-04T07:00:35.529Z,-0.70
2019-02-04T07:03:06.338Z,-0.60
2019-02-04T07:05:43.788Z,-0.60
2019-02-04T07:08:10.046Z,-0.50
2019-02-04T07:10:40.747Z,-0.50
2019-02-04T07:13:13.694Z,-0.50
2019-02-04T07:15:47.382Z,-0.40
2019-02-04T07:18:21.326Z,-0.50
2019-02-04T07:20:51.850Z,-0.40
2019-02-04T07:23:25.451Z,-0.50
2019-02-04T07:25:56.325Z,-0.50
2019-02-04T07:28:27.010Z,-0.40
2019-02-04T07:30:57.669Z,-0.40
2019-02-04T07:33:28.315Z,-0.30
2019-02-04T07:35:58.991Z,-0.30
2019-02-04T07:38:29.859Z,-0.20
2019-02-04T07:41:02.025Z,-0.20
2019-02-04T07:43:32.705Z,-0.10
2019-02-04T07:46:03.525Z,-0.10
2019-02-04T07:48:36.658Z,0.00
2019-02-04T07:51:07.291Z,0.00
2019-02-04T07:53:38.125Z,0.00
2019-02-04T07:56:08.875Z,0.10
2019-02-04T07:58:39.956Z,0.10
2019-02-04T08:01:10.634Z,0.10
2019-02-04T08:03:41.198Z,0.20
2019-02-04T08:06:12.281Z,0.20
2019-02-04T08:08:42.983Z,0.20
2019-02-04T08:11:13.575Z,0.20
2019-02-04T08:13:44.161Z,0.30
2019-02-04T08:16:14.856Z,0.40
2019-02-04T08:18:45.904Z,0.40
2019-02-04T08:21:16.608Z,0.50
2019-02-04T08:23:48.277Z,0.50
2019-02-04T08:26:21.229Z,0.60
2019-02-04T08:28:52.816Z,0.60
2019-02-04T08:31:25.558Z,0.60
2019-02-04T08:33:56.305Z,0.70
2019-02-04T08:36:27.043Z,0.80
2019-02-04T08:38:57.705Z,0.80
2019-02-04T08:41:28.478Z,0.90
2019-02-04T08:43:59.220Z,1.00
2019-02-04T08:46:29.928Z,1.00
2019-02-04T08:49:00.735Z,1.10
2019-02-04T08:51:31.786Z,1.10
2019-02-04T08:54:02.434Z,1.20
2019-02-04T08:56:33.468Z,1.30
2019-02-04T08:59:04.517Z,1.30
2019-02-04T09:01:35.247Z,1.40
2019-02-04T09:04:06.392Z,1.40
2019-02-04T09:06:37.254Z,1.50
2019-02-04T09:09:10.205Z,1.60
2019-02-04T09:11:43.500Z,1.70
2019-02-04T09:14:14.202Z,1.70
2019-02-04T09:16:44.872Z,1.80
2019-02-04T09:19:15.519Z,1.90
2019-02-04T09:21:46.143Z,1.90
2019-02-04T09:24:18.021Z,2.00
2019-02-04T09:26:48.696Z,2.00
2019-02-04T09:29:19.430Z,2.10
2019-02-04T09:31:50.097Z,2.10
2019-02-04T09:34:24.807Z,2.20
2019-02-04T09:36:55.387Z,2.20
2019-02-04T09:39:26.653Z,2.30
2019-02-04T09:41:57.277Z,2.30
2019-02-04T09:44:27.871Z,2.40
2019-02-04T09:46:58.581Z,2.50
2019-02-04T09:49:29.314Z,2.60
2019-02-04T09:52:00.494Z,2.60
2019-02-04T09:54:31.133Z,2.70
2019-02-04T09:57:01.745Z,2.90
2019-02-04T09:59:32.443Z,2.90
2019-02-04T10:02:03.072Z,3.00
2019-02-04T10:04:35.236Z,3.00
2019-02-04T10:07:06.062Z,3.10
2019-02-04T10:09:36.646Z,3.30
2019-02-04T10:12:07.430Z,3.40
2019-02-04T10:14:38.164Z,3.50
2019-02-04T10:17:08.822Z,3.50
2019-02-04T10:19:39.377Z,3.60
2019-02-04T10:22:10.051Z,3.70
2019-02-04T10:24:41.145Z,3.70
2019-02-04T10:27:11.702Z,3.80
2019-02-04T10:29:43.421Z,3.90
2019-02-04T10:32:14.225Z,4.10
2019-02-04T10:34:44.879Z,4.10
2019-02-04T10:37:15.743Z,4.10
2019-02-04T10:39:46.359Z,4.20
2019-02-04T10:42:17.183Z,4.30
2019-02-04T10:44:47.893Z,4.40
2019-02-04T10:47:21.672Z,4.50
2019-02-04T10:49:53.299Z,4.50
2019-02-04T10:52:23.920Z,4.50
2019-02-04T10:54:58.542Z,4.60
2019-02-04T10:57:40.372Z,4.70
2019-02-04T11:00:02.053Z,4.70
2019-02-04T11:02:39.532Z,4.80
2019-02-04T11:05:12.626Z,4.90
2019-02-04T11:07:43.670Z,4.90
2019-02-04T11:10:15.907Z,4.90
2019-02-04T11:12:47.009Z,4.90
2019-02-04T11:15:18.059Z,5.10
2019-02-04T11:17:48.844Z,5.30
2019-02-04T11:20:25.076Z,5.70
2019-02-04T11:22:56.914Z,6.20
2019-02-04T11:25:30.475Z,6.70
2019-02-04T11:28:01.203Z,6.70
2019-02-04T11:30:35.391Z,6.70
2019-02-04T11:33:08.116Z,7.10
2019-02-04T11:35:38.823Z,7.50
2019-02-04T11:38:09.616Z,7.70
2019-02-04T11:40:40.566Z,7.80
2019-02-04T11:43:12.040Z,7.70
2019-02-04T11:45:42.695Z,8.00
2019-02-04T11:48:13.663Z,8.00
2019-02-04T11:50:44.662Z,7.60
2019-02-04T11:53:17.113Z,7.20
2019-02-04T11:55:48.235Z,7.20
2019-02-04T11:58:18.736Z,7.40
2019-02-04T12:00:50.415Z,7.30
2019-02-04T12:03:21.378Z,7.10
2019-02-04T12:05:54.242Z,7.10
2019-02-04T12:08:25.135Z,7.10
2019-02-04T12:11:06.455Z,7.10
2019-02-04T12:13:39.173Z,7.30
2019-02-04T12:16:09.885Z,7.70
2019-02-04T12:18:44.224Z,7.80
2019-02-04T12:21:21.583Z,8.20
2019-02-04T12:23:47.854Z,8.70
2019-02-04T12:26:19.184Z,8.70
2019-02-04T12:28:49.720Z,8.80
2019-02-04T12:31:20.339Z,8.70
2019-02-04T12:33:51.035Z,8.40
2019-02-04T12:36:21.672Z,8.00
2019-02-04T12:38:52.229Z,8.00
2019-02-04T12:41:22.904Z,7.80
2019-02-04T12:43:53.651Z,7.60
2019-02-04T12:46:25.309Z,7.60
2019-02-04T12:48:55.993Z,7.50
2019-02-04T12:51:33.743Z,7.50
2019-02-04T12:53:59.309Z,7.60
2019-02-04T12:56:31.247Z,7.60
2019-02-04T12:59:02.364Z,7.30
2019-02-04T13:01:34.082Z,7.10
2019-02-04T13:04:05.820Z,7.10
2019-02-04T13:06:38.715Z,7.00
2019-02-04T13:09:10.684Z,7.00
2019-02-04T13:11:41.378Z,7.00
2019-02-04T13:14:12.165Z,7.10
2019-02-04T13:16:42.883Z,7.20
2019-02-04T13:19:13.501Z,7.20
2019-02-04T13:21:45.682Z,7.10
2019-02-04T13:24:16.601Z,7.20
2019-02-04T13:26:47.251Z,7.00
2019-02-04T13:29:17.807Z,6.90
2019-02-04T13:31:49.529Z,6.90
2019-02-04T13:34:20.236Z,6.90
2019-02-04T13:36:53.116Z,7.00
2019-02-04T13:39:26.181Z,7.00
2019-02-04T13:41:56.960Z,7.00
2019-02-04T13:44:30.341Z,6.90
2019-02-04T13:47:02.147Z,7.00
2019-02-04T13:49:35.040Z,6.90
2019-02-04T13:52:06.752Z,6.80
2019-02-04T13:54:38.339Z,6.80
2019-02-04T13:57:09.624Z,6.70
2019-02-04T13:59:41.096Z,6.70
2019-02-04T14:02:13.768Z,6.60
2019-02-04T14:04:45.012Z,6.50
2019-02-04T14:07:16.240Z,6.50
2019-02-04T14:09:48.202Z,6.50
2019-02-04T14:12:20.458Z,6.50
2019-02-04T14:14:51.319Z,6.50
2019-02-04T14:17:24.346Z,6.50
2019-02-04T14:19:54.838Z,6.60
2019-02-04T14:22:27.150Z,6.60
2019-02-04T14:24:57.982Z,6.50
2019-02-04T14:27:29.235Z,6.50
2019-02-04T14:29:59.898Z,6.40
2019-02-04T14:32:31.597Z,6.40
2019-02-04T14:35:04.742Z,6.30
2019-02-04T14:37:36.712Z,6.30
2019-02-04T14:40:18.021Z,6.10
2019-02-04T14:42:41.897Z,6.10
2019-02-04T14:46:00.269Z,6.10
2019-02-04T14:49:01.518Z,6.10
2019-02-04T14:51:53.525Z,6.00
2019-02-04T14:55:13.794Z,5.90
2019-02-04T14:58:08.248Z,5.80
2019-02-04T15:01:19.128Z,5.80
2019-02-04T15:04:29.728Z,5.70
2019-02-04T15:07:21.963Z,5.70
2019-02-04T15:10:27.849Z,5.70
2019-02-04T15:13:54.032Z,5.70
2019-02-04T15:17:00.999Z,5.60
2019-02-04T15:20:12.066Z,5.60
2019-02-04T15:23:42.389Z,5.60
2019-02-04T15:26:59.186Z,5.50
2019-02-04T15:29:46.901Z,5.50
2019-02-04T15:33:00.451Z,5.50
2019-02-04T15:36:13.865Z,5.50
2019-02-04T15:39:31.657Z,5.40
2019-02-04T15:42:50.806Z,5.40
2019-02-04T15:46:14.591Z,5.30
2019-02-04T15:49:22.001Z,5.30
2019-02-04T15:51:57.120Z,5.30
2019-02-04T15:54:27.846Z,5.30
2019-02-04T15:56:58.507Z,5.30
2019-02-04T15:59:30.454Z,5.30
2019-02-04T16:02:03.480Z,5.30
2019-02-04T16:04:36.589Z,5.30
2019-02-04T16:07:10.360Z,5.30
2019-02-04T16:09:43.370Z,5.30
2019-02-04T16:12:14.794Z,5.30
2019-02-04T16:14:46.294Z,5.20
2019-02-04T16:17:17.926Z,5.20
2019-02-04T16:19:49.199Z,5.20
2019-02-04T16:22:20.510Z,5.30
2019-02-04T16:24:51.795Z,5.30
2019-02-04T16:27:23.395Z,5.20
2019-02-04T16:29:56.833Z,5.20
2019-02-04T16:32:28.558Z,5.20
2019-02-04T16:34:59.688Z,5.20
2019-02-04T16:37:31.616Z,5.20
2019-02-04T16:40:15.706Z,5.00
2019-02-04T16:43:13.057Z,4.90
2019-02-04T16:45:44.276Z,4.90
2019-02-04T16:48:14.998Z,4.70
2019-02-04T16:51:03.399Z,4.70
2019-02-04T16:53:20.433Z,4.70
2019-02-04T16:55:51.633Z,4.60
2019-02-04T16:58:22.409Z,4.50
2019-02-04T17:00:53.317Z,4.50
2019-02-04T17:03:24.307Z,4.50
2019-02-04T17:06:03.089Z,4.40
2019-02-04T17:08:29.856Z,4.40
2019-02-04T17:11:00.741Z,4.40
2019-02-04T17:13:34.123Z,4.40
2019-02-04T17:16:06.913Z,4.40
2019-02-04T17:18:37.778Z,4.40
2019-02-04T17:21:10.372Z,4.40
2019-02-04T17:23:41.195Z,4.40
2019-02-04T17:26:14.422Z,4.50
2019-02-04T17:28:47.128Z,4.50
2019-02-04T17:31:17.931Z,4.60
2019-02-04T17:33:49.535Z,4.60
2019-02-04T17:36:20.866Z,4.60
2019-02-04T17:39:00.314Z,4.70
2019-02-04T17:41:34.665Z,4.70
2019-02-04T17:44:09.393Z,4.80
2019-02-04T17:46:43.822Z,4.80
2019-02-04T17:49:17.931Z,4.80
2019-02-04T17:51:52.311Z,4.90
2019-02-04T17:54:29.645Z,4.90
2019-02-04T17:57:06.524Z,4.90
2019-02-04T17:59:39.548Z,4.90
2019-02-04T18:02:13.165Z,4.90
2019-02-04T18:05:06.550Z,4.90
2019-02-04T18:07:40.348Z,5.00
2019-02-04T18:10:21.230Z,5.00
2019-02-04T18:12:55.044Z,5.00
2019-02-04T18:15:28.701Z,5.00
2019-02-04T18:18:01.481Z,5.00
2019-02-04T18:20:34.184Z,5.00
2019-02-04T18:23:11.060Z,5.00
2019-02-04T18:25:42.391Z,5.00
2019-02-04T18:28:14.117Z,5.10
2019-02-04T18:30:46.995Z,5.00
2019-02-04T18:33:18.603Z,5.00
2019-02-04T18:35:51.030Z,5.10
2019-02-04T18:38:23.902Z,5.00
2019-02-04T18:40:56.401Z,5.00
2019-02-04T18:43:54.414Z,5.00
2019-02-04T18:46:19.410Z,5.00
2019-02-04T18:48:53.414Z,5.00
2019-02-04T18:51:28.517Z,5.00
2019-02-04T18:54:02.774Z,5.00
2019-02-04T18:56:39.281Z,4.90
2019-02-04T18:59:18.560Z,4.90
2019-02-04T19:02:04.350Z,4.90
2019-02-04T19:04:59.964Z,4.90
2019-02-04T19:07:57.464Z,4.90
2019-02-04T19:10:41.357Z,4.90
2019-02-04T19:13:20.637Z,4.90
2019-02-04T19:15:58.662Z,4.90
2019-02-04T19:18:39.360Z,4.90
2019-02-04T19:21:14.590Z,4.90
2019-02-04T19:23:52.115Z,4.90
2019-02-04T19:26:30.969Z,4.80
2019-02-04T19:29:06.690Z,4.80
2019-02-04T19:31:40.466Z,4.80
2019-02-04T19:34:14.420Z,4.80
2019-02-04T19:36:47.028Z,4.70
2019-02-04T19:39:20.094Z,4.60
2019-02-04T19:41:53.780Z,4.60
2019-02-04T19:44:27.583Z,4.50
2019-02-04T19:47:02.757Z,4.50
2019-02-04T19:49:35.301Z,4.50
2019-02-04T19:52:08.874Z,4.50
2019-02-04T19:54:41.980Z,4.50
2019-02-04T19:57:16.971Z,4.60
2019-02-04T19:59:49.543Z,4.60
2019-02-04T20:02:23.159Z,4.60
2019-02-04T20:04:56.429Z,4.70
2019-02-04T20:07:29.748Z,4.70
2019-02-04T20:10:02.808Z,4.70
2019-02-04T20:12:36.558Z,4.70
2019-02-04T20:15:12.335Z,4.70
2019-02-04T20:17:45.915Z,4.70
2019-02-04T20:20:19.291Z,4.80
2019-02-04T20:22:54.388Z,4.70
2019-02-04T20:25:29.666Z,4.60
2019-02-04T20:28:04.206Z,4.70
2019-02-04T20:30:45.884Z,4.70
2019-02-04T20:33:14.124Z,4.70
2019-02-04T20:35:51.291Z,4.70
2019-02-04T20:38:27.286Z,4.70
2019-02-04T20:40:59.450Z,4.70
2019-02-04T20:43:32.008Z,4.70
2019-02-04T20:46:04.849Z,4.70
2019-02-04T20:48:38.117Z,4.70
2019-02-04T20:51:11.728Z,4.70
2019-02-04T20:53:44.122Z,4.80
2019-02-04T20:56:16.780Z,4.80
2019-02-04T20:58:51.700Z,4.80
2019-02-04T21:01:25.389Z,4.70
2019-02-04T21:03:59.278Z,4.60
2019-02-04T21:06:34.464Z,4.60
2019-02-04T21:09:10.311Z,4.60
2019-02-04T21:11:43.532Z,4.60
2019-02-04T21:14:16.104Z,4.60
2019-02-04T21:16:48.417Z,4.60
2019-02-04T21:19:21.077Z,4.50
2019-02-04T21:21:54.070Z,4.60
2019-02-04T21:24:27.309Z,4.50
2019-02-04T21:27:01.331Z,4.60
2019-02-04T21:29:36.385Z,4.60
2019-02-04T21:32:10.766Z,4.60
2019-02-04T21:34:43.670Z,4.60
2019-02-04T21:37:16.278Z,4.40
2019-02-04T21:39:51.023Z,4.30
2019-02-04T21:42:23.690Z,4.30
2019-02-04T21:44:57.119Z,4.30
2019-02-04T21:48:01.320Z,4.40
2019-02-04T21:50:36.407Z,4.30
2019-02-04T21:53:10.848Z,4.20
2019-02-04T21:55:45.665Z,4.20
2019-02-04T22:01:18.757Z,4.10
2019-02-04T22:03:53.762Z,4.00
2019-02-04T22:06:28.131Z,4.00
2019-02-04T22:09:02.777Z,4.00
2019-02-04T22:11:38.617Z,4.00
2019-02-04T22:14:14.442Z,4.00
2019-02-04T22:16:52.570Z,4.00
2019-02-04T22:19:27.697Z,4.00
2019-02-04T22:22:03.305Z,4.00
2019-02-04T22:24:36.540Z,4.00
2019-02-04T22:27:10.329Z,4.00
2019-02-04T22:29:45.682Z,4.00
2019-02-04T22:32:19.278Z,3.90
2019-02-04T22:34:54.019Z,3.80
2019-02-04T22:37:27.825Z,3.80
2019-02-04T22:40:01.671Z,3.70
2019-02-04T22:42:37.099Z,3.60
2019-02-04T22:45:11.388Z,3.60
2019-02-04T22:47:46.146Z,3.50
2019-02-04T22:50:37.127Z,3.50
2019-02-04T22:53:10.193Z,3.40
2019-02-04T22:55:44.140Z,3.30
2019-02-04T22:58:16.450Z,3.20
2019-02-04T23:01:13.328Z,3.00
2019-02-04T23:03:47.064Z,2.90
2019-02-04T23:06:21.319Z,2.80
2019-02-04T23:08:54.399Z,2.80
2019-02-04T23:11:28.945Z,2.80
2019-02-04T23:14:02.409Z,2.80
2019-02-04T23:16:36.410Z,2.70
2019-02-04T23:19:11.648Z,2.70
2019-02-04T23:21:45.610Z,2.70
2019-02-04T23:24:18.041Z,2.70
2019-02-04T23:26:52.850Z,2.70
2019-02-04T23:29:25.731Z,2.70
2019-02-04T23:31:59.667Z,2.70
2019-02-04T23:34:32.827Z,2.70
2019-02-04T23:37:06.491Z,2.70
2019-02-04T23:39:40.748Z,2.70
2019-02-04T23:42:15.886Z,2.70
2019-02-04T23:44:50.309Z,2.70
2019-02-04T23:47:26.306Z,2.70
2019-02-04T23:50:01.008Z,2.70
2019-02-04T23:52:35.251Z,2.70
2019-02-04T23:55:08.928Z,2.70
2019-02-04T23:57:43.466Z,2.80
